createdAt,value
2022-08-21T00:03:19.480Z,96177.78
2022-08-21T00:10:21.911Z,96181.44
2022-08-21T00:17:25.444Z,96187.31
2022-08-21T00:24:27.851Z,96183.84
2022-08-21T00:31:32.339Z,96192.66
2022-08-21T00:38:36.195Z,96185.38
2022-08-21T00:45:38.395Z,96176.28
2022-08-21T00:52:40.712Z,96183.25
2022-08-21T00:59:44.756Z,96170.19
2022-08-21T01:06:47.112Z,96158.22
2022-08-21T01:13:50.123Z,96155.63
2022-08-21T01:21:11.615Z,96152.00
2022-08-21T01:28:15.151Z,96153.03
2022-08-21T01:35:18.222Z,96163.47
2022-08-21T01:42:21.980Z,96161.66
2022-08-21T01:49:24.253Z,96161.03
2022-08-21T01:56:28.962Z,96153.72
2022-08-21T02:03:36.119Z,96152.53
2022-08-21T02:10:38.653Z,96141.38
2022-08-21T02:17:41.808Z,96144.84
2022-08-21T02:24:53.671Z,96138.56
2022-08-21T02:31:57.120Z,96133.28
2022-08-21T02:38:59.394Z,96138.91
2022-08-21T02:46:03.640Z,96132.59
2022-08-21T02:53:06.927Z,96138.88
2022-08-21T03:00:11.766Z,96133.72
2022-08-21T03:07:16.283Z,96136.13
2022-08-21T03:14:18.560Z,96129.63
2022-08-21T03:21:20.788Z,96127.56
2022-08-21T03:28:24.414Z,96125.88
2022-08-21T03:35:26.817Z,96130.28
2022-08-21T03:42:29.029Z,96138.56
2022-08-21T03:49:32.983Z,96136.91
2022-08-21T03:56:35.218Z,96142.75
2022-08-21T04:03:39.265Z,96147.72
2022-08-21T04:10:42.849Z,96151.72
2022-08-21T04:17:45.261Z,96160.38
2022-08-21T04:24:47.477Z,96168.28
2022-08-21T04:31:53.113Z,96176.56
2022-08-21T04:38:55.403Z,96181.00
2022-08-21T04:46:01.293Z,96185.81
2022-08-21T04:53:05.124Z,96190.06
2022-08-21T05:00:13.658Z,96192.81
2022-08-21T05:07:41.564Z,96194.09
2022-08-21T05:14:46.265Z,96187.56
2022-08-21T05:21:48.974Z,96192.69
2022-08-21T05:28:51.225Z,96198.66
2022-08-21T05:35:56.673Z,96197.59
2022-08-21T05:43:00.009Z,96199.16
2022-08-21T05:50:04.746Z,96208.19
2022-08-21T05:57:09.417Z,96198.31
2022-08-21T06:04:11.678Z,96192.84
2022-08-21T06:11:13.953Z,96195.50
2022-08-21T06:18:17.529Z,96192.78
2022-08-21T06:25:20.337Z,96195.53
2022-08-21T06:32:22.608Z,96195.66
2022-08-21T06:39:30.657Z,96199.78
2022-08-21T06:46:38.213Z,96197.06
2022-08-21T06:53:40.494Z,96201.78
2022-08-21T07:00:45.173Z,96193.50
2022-08-21T07:07:47.638Z,96196.25
2022-08-21T07:14:49.875Z,96197.16
2022-08-21T07:21:58.732Z,96194.97
2022-08-21T07:29:00.987Z,96192.81
2022-08-21T07:36:03.759Z,96189.69
2022-08-21T07:43:07.377Z,96194.06
2022-08-21T07:50:12.440Z,96193.00
2022-08-21T07:57:14.871Z,96184.91
2022-08-21T11:43:24.632Z,96025.41
2022-08-21T12:08:47.302Z,96019.81
2022-08-21T12:44:36.977Z,95997.47
2022-08-21T12:51:43.185Z,95994.25
2022-08-21T12:58:56.038Z,95986.97
2022-08-21T13:05:59.011Z,95983.28
2022-08-21T13:13:03.025Z,95978.75
2022-08-21T13:20:25.879Z,95987.56
2022-08-21T13:27:29.895Z,95979.56
2022-08-21T13:34:35.605Z,95976.59
2022-08-21T13:41:39.481Z,95975.81
2022-08-21T13:48:42.430Z,95976.91
2022-08-21T13:55:44.693Z,95976.13
2022-08-21T14:02:51.750Z,95972.34
2022-08-21T14:09:53.988Z,95973.16
2022-08-21T14:17:00.148Z,95975.28
2022-08-21T14:24:25.341Z,95969.66
2022-08-21T14:31:30.486Z,95966.16
2022-08-21T14:38:33.453Z,95954.56
2022-08-21T14:45:37.541Z,95958.78
2022-08-21T14:52:40.491Z,95951.00
2022-08-21T14:59:42.751Z,95944.09
2022-08-21T15:06:44.964Z,95941.69
2022-08-21T15:13:47.649Z,95938.00
2022-08-21T15:20:50.114Z,95929.91
2022-08-21T15:27:52.305Z,95934.41
2022-08-21T15:34:54.704Z,95928.50
2022-08-21T15:41:57.145Z,95924.50
2022-08-21T15:49:00.069Z,95916.91
2022-08-21T15:56:02.561Z,95909.47
2022-08-21T16:03:05.534Z,95913.94
2022-08-21T16:10:08.003Z,95913.84
2022-08-21T16:17:12.526Z,95901.94
2022-08-21T16:24:16.752Z,95904.25
2022-08-21T16:31:20.349Z,95893.63
2022-08-21T16:47:52.313Z,95886.22
2022-08-21T16:54:54.679Z,95883.28
2022-08-21T17:01:57.174Z,95880.88
2022-08-21T17:08:59.439Z,95879.00
2022-08-21T17:16:01.653Z,95877.38
2022-08-21T17:23:03.893Z,95872.03
2022-08-21T17:30:06.620Z,95873.09
2022-08-21T17:37:08.864Z,95870.16
2022-08-21T17:44:14.280Z,95871.78
2022-08-21T17:51:20.487Z,95869.09
2022-08-21T17:58:22.727Z,95868.81
2022-08-21T18:05:24.978Z,95874.97
2022-08-21T18:12:27.235Z,95882.75
2022-08-21T18:46:10.986Z,95903.56
2022-08-21T18:53:23.937Z,95907.38
2022-08-21T19:07:16.648Z,95920.63
2022-08-21T19:14:19.078Z,95918.97
2022-08-21T19:21:25.004Z,95924.41
2022-08-21T19:28:38.776Z,95927.91
2022-08-21T19:35:41.118Z,95924.88
2022-08-21T19:42:43.433Z,95926.41
2022-08-21T19:49:52.066Z,95932.09
2022-08-21T19:56:55.376Z,95926.69
2022-08-21T20:03:57.978Z,95927.63
2022-08-21T20:11:04.124Z,95930.38
2022-08-21T20:18:06.968Z,95938.59
2022-08-21T20:25:11.356Z,95927.47
2022-08-21T20:32:16.784Z,95939.56
2022-08-21T20:39:19.160Z,95942.72
2022-08-21T20:46:26.997Z,95942.38
2022-08-21T20:53:48.806Z,95943.34
2022-08-21T21:00:51.966Z,95933.44
2022-08-21T21:08:09.497Z,95933.16
2022-08-21T21:15:23.455Z,95933.56
2022-08-21T21:22:36.937Z,95937.81
2022-08-21T21:29:44.632Z,95931.09
2022-08-21T21:36:56.769Z,95933.81
2022-08-21T21:44:01.813Z,95930.50
2022-08-21T21:51:40.325Z,95930.06
2022-08-21T22:06:45.088Z,95922.03
2022-08-21T22:14:06.265Z,95931.84
2022-08-21T22:21:12.809Z,95934.03
2022-08-21T22:28:25.435Z,95933.25
2022-08-21T22:35:31.641Z,95934.44
2022-08-21T22:42:34.026Z,95935.38
2022-08-21T22:49:44.105Z,95928.78
2022-08-21T22:56:46.441Z,95932.03
2022-08-21T23:03:57.386Z,95934.56
2022-08-21T23:11:02.855Z,95933.06
2022-08-21T23:18:32.871Z,95931.00
2022-08-21T23:25:41.361Z,95922.31
2022-08-21T23:33:07.314Z,95911.25
2022-08-21T23:40:27.917Z,95911.50
2022-08-21T23:47:51.245Z,95917.72
2022-08-21T23:54:56.363Z,95908.06
